createdAt,value
2019-05-09T00:02:27.684Z,10.70
2019-05-09T00:04:56.644Z,10.70
2019-05-09T00:07:25.676Z,10.70
2019-05-09T00:09:54.988Z,10.60
2019-05-09T00:12:24.027Z,10.70
2019-05-09T00:14:54.008Z,10.70
2019-05-09T00:17:23.364Z,10.60
2019-05-09T00:19:54.132Z,10.60
2019-05-09T00:22:23.994Z,10.60
2019-05-09T00:24:53.959Z,10.60
2019-05-09T00:27:23.201Z,10.50
2019-05-09T00:29:53.167Z,10.50
2019-05-09T00:32:35.405Z,10.50
2019-05-09T00:35:17.286Z,10.50
2019-05-09T00:37:53.749Z,10.60
2019-05-09T00:40:23.854Z,10.50
2019-05-09T00:42:53.419Z,10.50
2019-05-09T00:45:56.957Z,10.50
2019-05-09T00:48:33.488Z,10.50
2019-05-09T00:51:03.429Z,10.50
2019-05-09T00:53:33.978Z,10.50
2019-05-09T00:56:04.133Z,10.50
2019-05-09T00:58:33.660Z,10.50
2019-05-09T01:01:04.383Z,10.50
2019-05-09T01:03:34.135Z,10.50
2019-05-09T01:06:04.123Z,10.50
2019-05-09T01:08:33.812Z,10.50
2019-05-09T01:11:11.762Z,10.50
2019-05-09T01:13:34.230Z,10.50
2019-05-09T01:16:04.520Z,10.50
2019-05-09T01:18:34.361Z,10.40
2019-05-09T01:21:04.083Z,10.40
2019-05-09T01:23:34.432Z,10.40
2019-05-09T01:26:04.193Z,10.40
2019-05-09T01:28:33.911Z,10.40
2019-05-09T01:31:04.255Z,10.50
2019-05-09T01:33:47.903Z,10.50
2019-05-09T01:36:16.965Z,10.50
2019-05-09T01:38:46.043Z,10.50
2019-05-09T01:41:27.201Z,10.50
2019-05-09T01:43:45.851Z,10.50
2019-05-09T01:46:14.834Z,10.50
2019-05-09T01:48:43.930Z,10.50
2019-05-09T01:51:13.933Z,10.50
2019-05-09T01:53:49.811Z,10.50
2019-05-09T01:56:19.171Z,10.50
2019-05-09T01:58:48.208Z,10.50
2019-05-09T02:01:17.115Z,10.50
2019-05-09T02:03:46.219Z,10.50
2019-05-09T02:06:15.535Z,10.50
2019-05-09T02:08:44.876Z,10.50
2019-05-09T02:11:14.011Z,10.50
2019-05-09T02:13:44.223Z,10.50
2019-05-09T02:16:33.778Z,10.50
2019-05-09T02:19:10.211Z,10.50
2019-05-09T02:21:39.287Z,10.50
2019-05-09T02:24:08.347Z,10.40
2019-05-09T02:26:37.319Z,10.30
2019-05-09T02:29:06.315Z,10.20
2019-05-09T02:31:36.372Z,10.20
2019-05-09T02:34:05.587Z,10.20
2019-05-09T02:36:34.638Z,10.20
2019-05-09T02:39:04.618Z,10.20
2019-05-09T02:41:33.693Z,10.10
2019-05-09T02:44:02.776Z,10.10
2019-05-09T02:46:49.380Z,10.00
2019-05-09T02:49:19.148Z,9.90
2019-05-09T02:51:48.896Z,9.80
2019-05-09T02:54:19.002Z,9.80
2019-05-09T02:56:50.581Z,9.80
2019-05-09T02:59:32.333Z,9.80
2019-05-09T03:02:09.514Z,9.70
2019-05-09T03:04:39.196Z,9.70
2019-05-09T03:07:09.718Z,9.60
2019-05-09T03:09:39.130Z,9.60
2019-05-09T03:12:22.614Z,9.50
2019-05-09T03:14:38.901Z,9.50
2019-05-09T03:17:09.082Z,9.40
2019-05-09T03:19:38.806Z,9.40
2019-05-09T03:22:18.749Z,9.40
2019-05-09T03:24:48.542Z,9.30
2019-05-09T03:27:28.518Z,9.40
2019-05-09T03:29:58.913Z,9.30
2019-05-09T03:32:29.851Z,9.30
2019-05-09T03:34:58.995Z,9.30
2019-05-09T06:54:41.687Z,9.20
2019-05-09T06:57:30.065Z,12.90
2019-05-09T07:05:31.480Z,13.00
2019-05-09T07:08:22.383Z,13.40
2019-05-09T07:10:51.530Z,13.40
2019-05-09T07:13:20.576Z,13.40
2019-05-09T07:15:49.657Z,13.50
2019-05-09T07:18:18.649Z,13.60
2019-05-09T07:20:48.282Z,13.70
2019-05-09T07:23:17.852Z,13.60
2019-05-09T07:25:53.429Z,13.70
2019-05-09T07:28:22.301Z,13.70
2019-05-09T07:31:11.652Z,13.80
2019-05-09T07:34:02.005Z,13.70
2019-05-09T07:36:31.450Z,14.00
2019-05-09T07:39:00.425Z,14.40
2019-05-09T07:41:29.313Z,14.40
2019-05-09T07:43:58.464Z,14.40
2019-05-09T07:46:32.141Z,14.20
2019-05-09T07:49:03.202Z,14.10
2019-05-09T07:51:32.249Z,14.30
2019-05-09T07:54:17.095Z,14.50
2019-05-09T08:06:28.671Z,14.70
2019-05-09T08:08:58.428Z,15.00
2019-05-09T08:11:28.465Z,14.60
2019-05-09T08:13:58.294Z,14.40
2019-05-09T08:16:28.041Z,14.90
2019-05-09T08:18:57.958Z,15.00
2019-05-09T08:21:27.764Z,14.90
2019-05-09T08:23:57.838Z,15.20
2019-05-09T08:26:29.694Z,15.10
2019-05-09T08:28:58.563Z,15.00
2019-05-09T08:31:28.236Z,14.80
2019-05-09T08:33:59.356Z,14.80
2019-05-09T08:36:28.386Z,14.80
2019-05-09T08:38:58.657Z,14.60
2019-05-09T08:41:29.277Z,14.50
2019-05-09T08:43:58.507Z,14.90
2019-05-09T08:46:28.731Z,15.20
2019-05-09T08:48:57.875Z,15.20
2019-05-09T08:52:06.554Z,15.30
2019-05-09T08:54:38.102Z,15.30
2019-05-09T08:57:07.797Z,15.40
2019-05-09T08:59:38.286Z,15.40
2019-05-09T09:02:14.481Z,15.30
2019-05-09T09:04:38.652Z,15.20
2019-05-09T09:07:09.347Z,15.00
2019-05-09T09:09:38.348Z,14.90
2019-05-09T09:12:25.194Z,15.10
2019-05-09T09:14:38.637Z,15.00
2019-05-09T09:17:08.203Z,14.80
2019-05-09T09:19:38.551Z,14.90
2019-05-09T09:22:08.813Z,15.10
2019-05-09T09:24:38.229Z,14.90
2019-05-09T09:27:07.802Z,14.70
2019-05-09T09:29:38.026Z,14.60
2019-05-09T09:32:08.385Z,14.80
2019-05-09T09:34:38.178Z,14.80
2019-05-09T09:37:11.168Z,15.00
2019-05-09T09:39:44.478Z,15.50
2019-05-09T09:42:09.273Z,16.10
2019-05-09T09:44:39.347Z,16.60
2019-05-09T09:47:10.355Z,17.20
2019-05-09T09:52:08.692Z,17.80
2019-05-09T09:54:38.709Z,17.80
2019-05-09T09:57:09.665Z,17.50
2019-05-09T10:00:04.388Z,17.80
2019-05-09T10:02:37.748Z,17.80
2019-05-09T10:05:07.718Z,18.20
2019-05-09T10:07:38.443Z,18.30
2019-05-09T10:10:08.023Z,18.40
2019-05-09T10:12:43.583Z,18.30
2019-05-09T10:15:24.301Z,18.40
2019-05-09T10:18:01.361Z,18.10
2019-05-09T10:20:48.327Z,18.20
2019-05-09T10:23:18.879Z,18.10
2019-05-09T10:25:47.721Z,18.10
2019-05-09T10:28:21.424Z,18.00
2019-05-09T10:30:48.525Z,17.90
2019-05-09T10:33:17.686Z,17.40
2019-05-09T10:35:47.873Z,17.40
2019-05-09T10:38:18.470Z,17.70
2019-05-09T10:40:48.624Z,18.00
2019-05-09T10:43:35.837Z,17.70
2019-05-09T10:46:16.305Z,17.60
2019-05-09T10:48:58.902Z,17.90
2019-05-09T10:51:27.963Z,17.70
2019-05-09T10:53:58.725Z,17.90
2019-05-09T10:56:28.188Z,18.20
2019-05-09T10:58:58.518Z,18.10
2019-05-09T11:01:29.405Z,17.90
2019-05-09T11:03:59.140Z,17.80
2019-05-09T11:06:28.912Z,17.60
2019-05-09T11:08:58.509Z,17.30
2019-05-09T11:11:28.412Z,17.50
2019-05-09T11:13:58.769Z,17.90
2019-05-09T11:16:42.325Z,18.20
2019-05-09T11:18:59.485Z,18.50
2019-05-09T11:21:29.036Z,18.60
2019-05-09T11:23:58.762Z,18.70
2019-05-09T11:26:28.739Z,18.70
2019-05-09T11:28:58.955Z,18.40
2019-05-09T11:31:29.549Z,18.30
2019-05-09T11:33:58.919Z,18.50
2019-05-09T11:36:27.959Z,19.00
2019-05-09T11:39:00.681Z,19.40
2019-05-09T11:41:29.421Z,19.40
2019-05-09T11:43:59.643Z,19.00
2019-05-09T11:46:29.069Z,18.40
2019-05-09T11:48:58.604Z,17.90
2019-05-09T11:51:29.355Z,17.70
2019-05-09T11:53:59.046Z,17.60
2019-05-09T11:56:27.998Z,17.60
2019-05-09T11:58:57.902Z,17.70
2019-05-09T12:01:29.316Z,17.60
2019-05-09T12:03:58.590Z,17.60
2019-05-09T12:06:28.913Z,17.70
2019-05-09T12:08:59.038Z,17.70
2019-05-09T12:11:28.425Z,18.00
2019-05-09T12:13:58.206Z,18.10
2019-05-09T12:16:28.097Z,18.20
2019-05-09T12:18:58.342Z,18.00
2019-05-09T12:21:28.405Z,17.90
2019-05-09T12:23:58.333Z,18.30
2019-05-09T12:26:29.170Z,18.20
2019-05-09T12:28:58.364Z,18.10
2019-05-09T12:31:28.736Z,18.00
2019-05-09T12:33:59.333Z,17.70
2019-05-09T12:36:28.880Z,17.70
2019-05-09T12:39:08.764Z,17.70
2019-05-09T12:41:38.645Z,17.60
2019-05-09T12:44:38.670Z,17.70
2019-05-09T12:47:07.892Z,17.60
2019-05-09T12:49:38.607Z,17.70
2019-05-09T12:52:08.273Z,17.90
2019-05-09T12:54:38.642Z,18.10
2019-05-09T12:57:08.136Z,18.00
2019-05-09T12:59:48.210Z,18.10
2019-05-09T13:02:08.213Z,18.30
2019-05-09T13:04:38.198Z,18.40
2019-05-09T13:07:08.564Z,18.50
2019-05-09T13:09:37.751Z,18.50
2019-05-09T13:12:08.627Z,18.40
2019-05-09T13:14:38.069Z,18.40
2019-05-09T13:17:20.956Z,18.50
2019-05-09T13:19:49.976Z,18.30
2019-05-09T13:22:19.621Z,18.20
2019-05-09T13:24:48.648Z,18.20
2019-05-09T13:27:18.959Z,18.40
2019-05-09T13:29:49.260Z,18.50
2019-05-09T13:32:18.769Z,18.80
2019-05-09T13:34:48.654Z,18.80
2019-05-09T13:37:18.809Z,18.60
2019-05-09T13:39:48.105Z,18.50
2019-05-09T13:42:19.561Z,18.60
2019-05-09T13:44:47.853Z,18.60
2019-05-09T13:47:17.954Z,18.70
2019-05-09T13:49:48.430Z,18.60
2019-05-09T13:52:18.070Z,18.60
2019-05-09T13:54:48.302Z,18.80
2019-05-09T13:57:18.852Z,18.60
2019-05-09T13:59:48.602Z,18.80
2019-05-09T14:02:18.754Z,18.70
2019-05-09T14:04:48.785Z,18.60
2019-05-09T14:07:19.399Z,18.40
2019-05-09T14:09:48.730Z,18.40
2019-05-09T14:12:17.978Z,18.60
2019-05-09T14:14:47.024Z,18.60
2019-05-09T14:17:18.779Z,18.50
2019-05-09T14:19:50.909Z,18.50
2019-05-09T14:22:18.059Z,18.40
2019-05-09T14:24:48.424Z,18.10
2019-05-09T14:27:18.666Z,18.00
2019-05-09T14:29:49.663Z,17.80
2019-05-09T14:32:18.815Z,17.70
2019-05-09T14:34:48.214Z,17.60
2019-05-09T14:37:18.032Z,17.60
2019-05-09T14:39:55.895Z,17.60
2019-05-09T14:42:18.843Z,17.70
2019-05-09T14:44:48.183Z,17.80
2019-05-09T14:47:17.827Z,17.90
2019-05-09T14:49:50.088Z,17.90
2019-05-09T14:52:17.509Z,18.00
2019-05-09T14:54:48.281Z,18.00
2019-05-09T14:57:17.587Z,17.80
2019-05-09T14:59:46.636Z,17.70
2019-05-09T15:02:17.859Z,17.50
2019-05-09T15:04:48.415Z,17.50
2019-05-09T15:07:19.390Z,17.50
2019-05-09T15:09:47.683Z,17.50
2019-05-09T15:12:18.591Z,17.40
2019-05-09T15:14:47.967Z,17.40
2019-05-09T15:17:18.512Z,17.30
2019-05-09T15:19:57.476Z,17.30
2019-05-09T15:22:19.458Z,17.30
2019-05-09T15:24:48.512Z,17.20
2019-05-09T15:27:18.167Z,17.20
2019-05-09T15:29:48.673Z,17.20
2019-05-09T15:32:18.435Z,17.20
2019-05-09T15:34:47.643Z,17.10
2019-05-09T15:37:18.600Z,17.10
2019-05-09T15:39:48.478Z,17.20
2019-05-09T15:42:18.370Z,17.30
2019-05-09T15:44:47.805Z,17.20
2019-05-09T15:47:24.496Z,17.20
2019-05-09T15:49:53.460Z,17.20
2019-05-09T15:52:22.418Z,17.20
2019-05-09T15:54:51.396Z,17.30
2019-05-09T15:57:20.460Z,17.30
2019-05-09T15:59:49.636Z,17.30
2019-05-09T16:02:19.233Z,17.30
2019-05-09T16:04:48.408Z,17.30
2019-05-09T16:07:17.902Z,17.30
2019-05-09T16:09:48.319Z,17.30
2019-05-09T16:12:18.524Z,17.40
2019-05-09T16:14:48.612Z,17.50
2019-05-09T16:17:19.043Z,17.60
2019-05-09T16:19:48.636Z,17.80
2019-05-09T16:22:18.967Z,17.80
2019-05-09T16:24:48.850Z,17.90
2019-05-09T16:27:17.878Z,18.10
2019-05-09T16:29:48.581Z,18.20
2019-05-09T16:32:18.042Z,18.10
2019-05-09T16:34:47.223Z,18.10
2019-05-09T16:37:16.132Z,18.00
2019-05-09T16:39:47.009Z,18.00
2019-05-09T16:42:15.775Z,17.90
2019-05-09T16:44:44.738Z,17.80
2019-05-09T16:47:13.779Z,17.80
2019-05-09T16:49:42.772Z,17.70
2019-05-09T16:52:11.728Z,17.60
2019-05-09T16:54:43.183Z,17.70
2019-05-09T16:57:12.104Z,17.70
2019-05-09T16:59:41.168Z,17.70
2019-05-09T17:02:18.792Z,17.70
2019-05-09T17:04:41.016Z,17.60
2019-05-09T17:07:10.088Z,17.40
2019-05-09T17:09:44.439Z,17.20
2019-05-09T17:12:13.493Z,17.20
2019-05-09T17:14:42.557Z,17.10
2019-05-09T17:17:11.612Z,17.10
2019-05-09T17:19:40.681Z,17.10
2019-05-09T17:22:16.888Z,17.10
2019-05-09T17:24:48.366Z,17.10
2019-05-09T17:27:18.810Z,17.00
2019-05-09T17:29:48.332Z,17.00
2019-05-09T17:32:18.278Z,16.90
2019-05-09T17:34:47.700Z,16.90
2019-05-09T17:37:17.807Z,16.90
2019-05-09T17:39:46.972Z,16.90
2019-05-09T17:42:18.110Z,16.90
2019-05-09T17:44:48.805Z,17.00
2019-05-09T17:47:17.627Z,17.00
2019-05-09T17:49:48.268Z,16.90
2019-05-09T17:52:18.258Z,16.90
2019-05-09T17:54:48.562Z,16.90
2019-05-09T17:57:18.846Z,16.90
2019-05-09T17:59:48.811Z,16.80
2019-05-09T18:02:18.139Z,16.70
2019-05-09T18:04:47.979Z,16.70
2019-05-09T18:07:17.987Z,16.70
2019-05-09T18:09:48.320Z,16.80
2019-05-09T18:12:19.156Z,16.70
2019-05-09T18:14:48.503Z,16.70
2019-05-09T18:17:18.091Z,16.70
2019-05-09T18:19:47.202Z,16.70
2019-05-09T18:22:18.382Z,16.70
2019-05-09T18:24:48.249Z,16.60
2019-05-09T18:27:18.096Z,16.60
2019-05-09T18:29:47.544Z,16.60
2019-05-09T18:32:53.749Z,16.40
2019-05-09T18:35:24.126Z,16.30
2019-05-09T18:37:53.770Z,16.20
2019-05-09T18:40:22.924Z,16.10
2019-05-09T18:42:52.022Z,16.10
2019-05-09T18:45:21.330Z,16.00
2019-05-09T18:47:50.282Z,16.00
2019-05-09T18:50:20.914Z,16.00
2019-05-09T18:52:49.892Z,15.90
2019-05-09T18:55:19.218Z,15.90
2019-05-09T18:57:48.259Z,15.90
2019-05-09T19:00:18.928Z,15.80
2019-05-09T19:02:48.062Z,15.70
2019-05-09T19:05:19.034Z,15.60
2019-05-09T19:07:48.134Z,15.50
2019-05-09T19:10:17.359Z,15.60
2019-05-09T19:12:46.426Z,15.50
2019-05-09T19:15:23.826Z,15.50
2019-05-09T19:18:00.300Z,15.50
2019-05-09T19:20:52.318Z,15.50
2019-05-09T19:23:21.262Z,15.40
2019-05-09T19:25:50.154Z,15.40
2019-05-09T19:28:19.123Z,15.30
2019-05-09T19:30:48.119Z,15.30
2019-05-09T19:33:17.019Z,15.30
2019-05-09T19:35:46.019Z,15.20
2019-05-09T19:38:15.107Z,15.20
2019-05-09T19:40:44.139Z,15.20
2019-05-09T19:43:13.069Z,15.10
2019-05-09T19:45:42.001Z,15.00
2019-05-09T19:48:11.386Z,14.90
2019-05-09T19:50:40.521Z,14.90
2019-05-09T19:53:10.190Z,15.00
2019-05-09T19:55:39.494Z,14.90
2019-05-09T19:58:08.595Z,14.90
2019-05-09T20:00:37.727Z,14.90
2019-05-09T20:03:06.738Z,14.80
2019-05-09T20:05:35.778Z,14.80
2019-05-09T20:08:04.834Z,14.80
2019-05-09T20:10:51.782Z,14.80
2019-05-09T20:13:31.798Z,14.70
2019-05-09T20:16:00.814Z,14.60
2019-05-09T20:18:30.175Z,14.50
2019-05-09T20:20:59.209Z,14.30
2019-05-09T20:23:28.118Z,14.10
2019-05-09T20:25:57.227Z,14.00
2019-05-09T20:28:26.186Z,14.00
2019-05-09T20:30:55.338Z,14.00
2019-05-09T20:33:24.353Z,13.90
2019-05-09T20:35:53.375Z,13.80
2019-05-09T20:38:22.778Z,13.70
2019-05-09T20:40:52.027Z,13.70
2019-05-09T20:43:21.228Z,13.70
2019-05-09T20:45:50.354Z,13.70
2019-05-09T20:48:19.578Z,13.70
2019-05-09T20:50:48.648Z,13.70
2019-05-09T20:53:17.711Z,13.60
2019-05-09T20:55:46.994Z,13.60
2019-05-09T20:58:16.217Z,13.70
2019-05-09T21:00:45.511Z,13.60
2019-05-09T21:03:14.732Z,13.60
2019-05-09T21:05:43.819Z,13.60
2019-05-09T21:08:12.967Z,13.50
2019-05-09T21:10:42.103Z,13.50
2019-05-09T21:13:11.604Z,13.50
2019-05-09T21:15:41.131Z,13.50
2019-05-09T21:18:10.360Z,13.50
2019-05-09T21:20:39.634Z,13.50
2019-05-09T21:23:22.898Z,13.40
2019-05-09T21:25:39.700Z,13.40
2019-05-09T21:28:09.183Z,13.50
2019-05-09T21:30:38.408Z,13.40
2019-05-09T21:33:07.594Z,13.50
2019-05-09T21:35:36.564Z,13.40
2019-05-09T21:38:05.779Z,13.40
2019-05-09T21:40:34.815Z,13.40
2019-05-09T21:43:03.795Z,13.40
2019-05-09T21:45:32.947Z,13.40
2019-05-09T21:48:01.911Z,13.40
2019-05-09T21:50:30.888Z,13.40
2019-05-09T21:53:00.167Z,13.40
2019-05-09T21:55:29.195Z,13.40
2019-05-09T21:57:58.120Z,13.40
2019-05-09T22:00:33.251Z,13.40
2019-05-09T22:03:02.645Z,13.40
2019-05-09T22:05:31.673Z,13.40
2019-05-09T22:08:00.639Z,13.40
2019-05-09T22:10:29.575Z,13.40
2019-05-09T22:12:58.591Z,13.40
2019-05-09T22:15:27.643Z,13.30
2019-05-09T22:17:56.684Z,13.30
2019-05-09T22:20:25.839Z,13.30
2019-05-09T22:22:54.803Z,13.20
2019-05-09T22:25:23.836Z,13.30
2019-05-09T22:27:52.813Z,13.20
2019-05-09T22:30:22.336Z,13.20
2019-05-09T22:32:51.341Z,13.20
2019-05-09T22:35:20.411Z,13.10
2019-05-09T22:37:49.448Z,13.10
2019-05-09T22:40:18.493Z,13.10
2019-05-09T22:42:47.392Z,13.10
2019-05-09T22:45:16.636Z,13.10
2019-05-09T22:47:45.596Z,13.10
2019-05-09T22:50:14.861Z,13.10
2019-05-09T22:52:43.877Z,13.10
2019-05-09T22:55:12.944Z,13.00
2019-05-09T22:57:42.056Z,13.00
2019-05-09T23:00:11.410Z,13.00
2019-05-09T23:02:40.505Z,13.00
2019-05-09T23:05:09.532Z,12.90
2019-05-09T23:07:38.500Z,12.90
2019-05-09T23:10:07.749Z,12.90
2019-05-09T23:12:36.628Z,12.90
2019-05-09T23:15:06.639Z,12.90
2019-05-09T23:17:35.669Z,12.90
2019-05-09T23:20:06.709Z,12.90
2019-05-09T23:22:35.649Z,12.90
2019-05-09T23:25:05.502Z,12.90
2019-05-09T23:27:34.446Z,12.90
2019-05-09T23:30:03.659Z,12.80
2019-05-09T23:32:41.913Z,12.90
2019-05-09T23:35:10.894Z,12.80
2019-05-09T23:37:39.865Z,12.80
2019-05-09T23:40:09.006Z,12.70
2019-05-09T23:42:37.979Z,12.80
2019-05-09T23:45:07.089Z,12.70
2019-05-09T23:47:35.977Z,12.70
2019-05-09T23:50:05.958Z,12.70
2019-05-09T23:52:34.986Z,12.70
2019-05-09T23:55:21.960Z,12.60
2019-05-09T23:58:08.794Z,12.60
